createdAt,value
2018-01-22T00:00:00.920Z,43.13
2018-01-22T00:02:28.380Z,49.10
2018-01-22T00:04:56.133Z,54.50
2018-01-22T00:07:23.607Z,48.47
2018-01-22T00:09:51.064Z,49.63
2018-01-22T00:12:19.142Z,47.23
2018-01-22T00:14:46.601Z,44.23
2018-01-22T00:17:14.056Z,43.43
2018-01-22T00:19:42.087Z,50.03
2018-01-22T00:22:11.344Z,46.90
2018-01-22T00:24:38.796Z,33.50
2018-01-22T00:27:06.655Z,33.03
2018-01-22T00:29:34.110Z,33.10
2018-01-22T00:32:01.565Z,32.03
2018-01-22T00:34:29.654Z,37.50
2018-01-22T00:36:57.113Z,27.30
2018-01-22T00:39:24.571Z,32.47
2018-01-22T00:41:52.331Z,36.30
2018-01-22T00:44:19.781Z,32.40
2018-01-22T00:46:47.332Z,35.47
2018-01-22T00:49:15.021Z,31.20
2018-01-22T00:51:42.481Z,34.10
2018-01-22T00:54:09.931Z,32.37
2018-01-22T00:56:37.708Z,34.40
2018-01-22T00:59:05.164Z,30.37
2018-01-22T01:01:32.685Z,33.10
2018-01-22T01:04:00.703Z,25.60
2018-01-22T01:06:28.168Z,34.50
2018-01-22T01:08:55.628Z,25.23
2018-01-22T01:11:23.396Z,29.57
2018-01-22T01:13:51.236Z,30.90
2018-01-22T01:16:18.700Z,32.23
2018-01-22T01:18:46.432Z,34.67
2018-01-22T01:21:13.902Z,32.28
2018-01-22T01:23:41.353Z,34.77
2018-01-22T01:26:09.078Z,33.43
2018-01-22T01:28:36.542Z,34.13
2018-01-22T01:31:04.003Z,30.53
2018-01-22T01:33:31.777Z,33.70
2018-01-22T01:35:59.262Z,34.63
2018-01-22T01:38:26.721Z,36.03
2018-01-22T01:40:54.445Z,41.70
2018-01-22T01:43:21.906Z,36.53
2018-01-22T01:45:49.374Z,34.97
2018-01-22T01:48:17.132Z,41.85
2018-01-22T01:50:44.592Z,39.00
2018-01-22T01:53:12.049Z,43.50
2018-01-22T01:55:40.134Z,36.30
2018-01-22T01:58:07.614Z,38.00
2018-01-22T02:00:35.072Z,34.20
2018-01-22T02:03:02.820Z,32.58
2018-01-22T02:05:30.292Z,46.17
2018-01-22T02:07:57.757Z,53.00
2018-01-22T02:10:25.499Z,43.22
2018-01-22T02:12:52.972Z,37.15
2018-01-22T02:15:21.119Z,42.60
2018-01-22T02:17:48.803Z,46.00
2018-01-22T02:20:16.273Z,37.55
2018-01-22T02:22:43.756Z,31.50
2018-01-22T02:25:11.481Z,32.88
2018-01-22T02:27:38.967Z,31.23
2018-01-22T02:30:06.444Z,35.20
2018-01-22T02:32:34.173Z,27.73
2018-01-22T02:35:01.646Z,29.23
2018-01-22T02:37:29.121Z,28.55
2018-01-22T02:39:56.937Z,37.00
2018-01-22T02:42:24.406Z,59.65
2018-01-22T02:44:51.877Z,32.70
2018-01-22T02:47:19.548Z,26.37
2018-01-22T02:49:47.012Z,23.37
2018-01-22T02:52:14.481Z,25.15
2018-01-22T02:54:42.239Z,25.23
2018-01-22T02:57:09.709Z,38.30
2018-01-22T02:59:37.186Z,24.57
2018-01-22T03:02:04.928Z,25.63
2018-01-22T03:04:32.396Z,25.73
2018-01-22T03:06:59.853Z,25.53
2018-01-22T03:09:28.230Z,35.47
2018-01-22T03:11:55.694Z,32.53
2018-01-22T03:14:23.164Z,39.67
2018-01-22T03:16:51.220Z,34.13
2018-01-22T03:19:18.681Z,32.17
2018-01-22T03:21:46.137Z,29.10
2018-01-22T03:24:13.902Z,40.67
2018-01-22T03:26:41.358Z,34.50
2018-01-22T03:29:08.811Z,35.13
2018-01-22T03:31:36.588Z,26.90
2018-01-22T03:34:04.037Z,26.90
2018-01-22T03:36:31.494Z,30.17
2018-01-22T03:38:59.285Z,38.43
2018-01-22T03:41:26.748Z,30.13
2018-01-22T03:43:54.246Z,35.97
2018-01-22T03:46:21.965Z,30.07
2018-01-22T03:48:49.438Z,32.13
2018-01-22T03:51:16.964Z,34.40
2018-01-22T03:53:44.653Z,39.30
2018-01-22T03:56:12.104Z,27.80
2018-01-22T03:58:39.563Z,32.50
2018-01-22T04:01:07.345Z,31.70
2018-01-22T04:03:34.800Z,28.73
2018-01-22T04:06:02.268Z,30.43
2018-01-22T04:08:30.033Z,29.77
2018-01-22T04:10:57.493Z,30.90
2018-01-22T04:13:24.957Z,42.83
2018-01-22T04:15:52.722Z,44.43
2018-01-22T04:18:20.872Z,34.90
2018-01-22T04:20:48.320Z,37.47
2018-01-22T04:23:16.020Z,43.87
2018-01-22T04:25:43.481Z,43.30
2018-01-22T04:28:10.945Z,49.23
2018-01-22T04:30:39.005Z,54.37
2018-01-22T04:33:06.466Z,35.83
2018-01-22T04:35:33.917Z,30.27
2018-01-22T04:38:01.707Z,31.50
2018-01-22T04:40:29.164Z,33.03
2018-01-22T04:42:56.668Z,33.93
2018-01-22T04:45:24.387Z,37.37
2018-01-22T04:47:51.852Z,36.33
2018-01-22T04:50:19.310Z,54.03
2018-01-22T04:52:47.068Z,38.07
2018-01-22T04:55:14.539Z,49.20
2018-01-22T04:57:41.996Z,38.43
2018-01-22T05:00:10.062Z,41.17
2018-01-22T05:02:38.409Z,38.97
2018-01-22T05:05:05.989Z,37.47
2018-01-22T05:07:34.518Z,50.73
2018-01-22T05:10:01.981Z,51.30
2018-01-22T05:12:29.448Z,57.97
2018-01-22T05:14:57.286Z,48.70
2018-01-22T05:17:24.749Z,49.20
2018-01-22T05:19:53.208Z,61.77
2018-01-22T05:22:21.202Z,66.53
2018-01-22T05:24:48.666Z,53.17
2018-01-22T05:27:16.129Z,50.80
2018-01-22T05:29:43.888Z,39.30
2018-01-22T05:32:11.342Z,54.83
2018-01-22T05:34:38.807Z,53.50
2018-01-22T05:37:06.516Z,47.00
2018-01-22T05:39:33.982Z,42.80
2018-01-22T05:42:01.433Z,66.23
2018-01-22T05:44:29.249Z,36.63
2018-01-22T05:46:56.701Z,53.57
2018-01-22T05:49:24.151Z,31.80
2018-01-22T05:51:51.942Z,36.30
2018-01-22T05:54:19.397Z,36.53
2018-01-22T05:56:46.857Z,36.13
2018-01-22T05:59:14.631Z,33.87
2018-01-22T06:01:42.086Z,41.40
2018-01-22T06:04:09.539Z,35.57
2018-01-22T06:06:37.317Z,28.53
2018-01-22T06:09:04.769Z,29.63
2018-01-22T06:11:32.412Z,24.93
2018-01-22T06:14:00.238Z,31.77
2018-01-22T06:16:27.689Z,27.63
2018-01-22T06:18:55.144Z,25.57
2018-01-22T06:21:25.472Z,21.33
2018-01-22T06:23:52.924Z,23.00
2018-01-22T06:26:20.436Z,22.70
2018-01-22T06:28:48.152Z,19.80
2018-01-22T06:31:15.612Z,26.57
2018-01-22T06:33:43.067Z,22.83
2018-01-22T06:36:10.835Z,25.23
2018-01-22T06:38:38.300Z,27.17
2018-01-22T06:41:05.752Z,43.93
2018-01-22T06:43:33.516Z,31.70
2018-01-22T06:46:00.971Z,24.80
2018-01-22T06:48:28.415Z,24.20
2018-01-22T06:50:56.313Z,26.27
2018-01-22T06:53:23.770Z,38.93
2018-01-22T06:55:51.232Z,23.13
2018-01-22T06:58:19.197Z,23.60
2018-01-22T07:00:46.649Z,24.10
2018-01-22T07:03:14.114Z,23.90
2018-01-22T07:05:41.912Z,23.00
2018-01-22T07:08:09.373Z,19.53
2018-01-22T07:10:36.826Z,25.20
2018-01-22T07:13:04.572Z,19.97
2018-01-22T07:15:32.028Z,27.40
2018-01-22T07:17:59.496Z,31.73
2018-01-22T07:20:27.253Z,20.83
2018-01-22T07:22:55.352Z,28.17
2018-01-22T07:25:22.825Z,20.90
2018-01-22T07:27:50.877Z,26.83
2018-01-22T07:30:18.345Z,24.80
2018-01-22T07:32:45.816Z,28.83
2018-01-22T07:35:13.563Z,26.30
2018-01-22T07:37:41.014Z,26.70
2018-01-22T07:40:08.477Z,27.27
2018-01-22T07:42:36.106Z,23.13
2018-01-22T07:45:03.556Z,25.40
2018-01-22T07:47:31.013Z,19.70
2018-01-22T07:49:58.938Z,31.30
2018-01-22T07:52:26.396Z,27.53
2018-01-22T07:54:53.854Z,25.67
2018-01-22T07:57:21.477Z,29.03
2018-01-22T07:59:48.928Z,26.03
2018-01-22T08:02:16.384Z,24.83
2018-01-22T08:04:44.306Z,22.03
2018-01-22T08:07:11.756Z,30.80
2018-01-22T08:09:39.210Z,23.13
2018-01-22T08:12:06.998Z,29.03
2018-01-22T08:14:34.533Z,23.50
2018-01-22T08:17:01.994Z,21.03
2018-01-22T08:19:29.860Z,35.10
2018-01-22T08:21:57.320Z,26.60
2018-01-22T08:24:27.135Z,29.50
2018-01-22T08:26:54.937Z,30.37
2018-01-22T08:29:22.385Z,21.57
2018-01-22T08:31:49.842Z,24.27
2018-01-22T08:34:17.816Z,28.57
2018-01-22T08:36:45.272Z,29.47
2018-01-22T08:39:12.726Z,27.53
2018-01-22T08:41:40.816Z,26.50
2018-01-22T08:44:08.277Z,34.47
2018-01-22T08:46:35.741Z,24.33
2018-01-22T08:49:03.586Z,25.03
2018-01-22T08:51:31.037Z,23.20
2018-01-22T08:53:58.488Z,23.90
2018-01-22T08:56:26.185Z,37.97
2018-01-22T08:58:53.636Z,23.43
2018-01-22T09:01:21.114Z,42.03
2018-01-22T09:03:49.172Z,23.30
2018-01-22T09:06:16.627Z,22.80
2018-01-22T09:08:44.072Z,18.47
2018-01-22T09:11:11.860Z,22.70
2018-01-22T09:13:39.315Z,24.23
2018-01-22T09:16:06.795Z,24.90
2018-01-22T09:18:34.552Z,18.50
2018-01-22T09:21:02.003Z,22.13
2018-01-22T09:23:29.449Z,20.73
2018-01-22T09:25:58.169Z,24.77
2018-01-22T09:28:25.626Z,17.20
2018-01-22T09:30:53.083Z,17.00
2018-01-22T09:33:20.852Z,17.87
2018-01-22T09:35:48.301Z,21.10
2018-01-22T09:38:15.750Z,24.63
2018-01-22T09:40:43.484Z,17.00
2018-01-22T09:43:10.942Z,19.83
2018-01-22T09:45:38.401Z,17.53
2018-01-22T09:48:06.217Z,16.83
2018-01-22T09:50:33.672Z,17.30
2018-01-22T09:53:01.121Z,21.43
2018-01-22T09:55:28.914Z,18.97
2018-01-22T09:57:56.363Z,21.83
2018-01-22T10:00:23.813Z,23.93
2018-01-22T10:02:51.611Z,18.83
2018-01-22T10:05:19.064Z,38.37
2018-01-22T10:07:46.524Z,18.20
2018-01-22T10:10:14.289Z,16.53
2018-01-22T10:12:41.752Z,26.47
2018-01-22T10:15:09.214Z,19.00
2018-01-22T10:17:36.976Z,18.67
2018-01-22T10:20:04.440Z,28.90
2018-01-22T10:22:31.896Z,17.27
2018-01-22T10:24:59.665Z,34.20
2018-01-22T10:27:27.500Z,18.00
2018-01-22T10:29:54.953Z,18.83
2018-01-22T10:32:22.654Z,21.23
2018-01-22T10:34:50.096Z,16.67
2018-01-22T10:37:17.553Z,20.93
2018-01-22T10:39:45.651Z,23.33
2018-01-22T10:42:13.097Z,15.73
2018-01-22T10:44:40.540Z,18.77
2018-01-22T10:47:08.329Z,18.53
2018-01-22T10:49:35.784Z,21.00
2018-01-22T10:52:03.237Z,16.63
2018-01-22T10:54:31.047Z,21.90
2018-01-22T10:56:58.499Z,17.63
2018-01-22T10:59:25.959Z,19.50
2018-01-22T11:01:54.022Z,22.53
2018-01-22T11:04:21.505Z,23.27
2018-01-22T11:06:48.960Z,16.50
2018-01-22T11:09:16.706Z,18.07
2018-01-22T11:11:44.163Z,25.00
2018-01-22T11:14:11.613Z,19.33
2018-01-22T11:16:40.018Z,21.03
2018-01-22T11:19:07.467Z,17.87
2018-01-22T11:21:34.915Z,20.90
2018-01-22T11:24:02.712Z,24.43
2018-01-22T11:26:30.628Z,30.10
2018-01-22T11:28:58.621Z,19.67
2018-01-22T11:31:26.321Z,20.57
2018-01-22T11:33:53.773Z,20.60
2018-01-22T11:36:21.262Z,19.00
2018-01-22T11:38:48.990Z,19.03
2018-01-22T11:41:16.492Z,25.23
2018-01-22T11:43:43.953Z,28.53
2018-01-22T11:46:11.663Z,22.80
2018-01-22T11:48:39.121Z,19.50
2018-01-22T11:51:06.580Z,22.83
2018-01-22T11:53:34.356Z,27.60
2018-01-22T11:56:01.804Z,44.43
2018-01-22T11:58:29.416Z,33.23
2018-01-22T12:00:57.354Z,25.10
2018-01-22T12:03:24.804Z,23.67
2018-01-22T12:05:52.351Z,35.20
2018-01-22T12:08:20.052Z,23.97
2018-01-22T12:10:47.509Z,28.90
2018-01-22T12:13:14.976Z,35.37
2018-01-22T12:15:42.741Z,48.20
2018-01-22T12:18:10.200Z,38.80
2018-01-22T12:20:37.660Z,21.63
2018-01-22T12:23:05.444Z,23.53
2018-01-22T12:25:32.901Z,27.80
2018-01-22T12:28:00.383Z,22.80
2018-01-22T12:30:29.032Z,39.73
2018-01-22T12:32:56.493Z,25.37
2018-01-22T12:35:23.947Z,25.70
2018-01-22T12:37:52.017Z,30.73
2018-01-22T12:40:19.476Z,22.30
2018-01-22T12:42:46.928Z,25.93
2018-01-22T12:45:14.693Z,22.03
2018-01-22T12:47:42.157Z,26.37
2018-01-22T12:50:09.613Z,23.23
2018-01-22T12:52:37.395Z,29.50
2018-01-22T12:55:04.857Z,29.27
2018-01-22T12:57:32.312Z,32.30
2018-01-22T13:00:00.091Z,33.13
2018-01-22T13:02:27.552Z,28.20
2018-01-22T13:04:55.020Z,37.27
2018-01-22T13:07:23.076Z,29.83
2018-01-22T13:09:50.536Z,43.47
2018-01-22T13:12:17.992Z,32.57
2018-01-22T13:14:45.766Z,46.10
2018-01-22T13:17:13.226Z,28.07
2018-01-22T13:19:40.691Z,30.23
2018-01-22T13:22:08.440Z,32.80
2018-01-22T13:24:35.895Z,34.10
2018-01-22T13:27:03.352Z,32.87
2018-01-22T13:29:31.134Z,36.67
2018-01-22T13:31:58.981Z,47.40
2018-01-22T13:34:26.444Z,30.27
2018-01-22T13:36:54.362Z,32.73
2018-01-22T13:39:21.820Z,41.27
2018-01-22T13:41:49.276Z,31.70
2018-01-22T13:44:17.124Z,28.53
2018-01-22T13:46:44.591Z,30.83
2018-01-22T13:49:12.057Z,29.53
2018-01-22T13:51:39.819Z,42.77
2018-01-22T13:54:07.745Z,27.20
2018-01-22T13:56:35.190Z,34.33
2018-01-22T13:59:03.125Z,33.53
2018-01-22T14:01:30.584Z,33.90
2018-01-22T14:03:58.046Z,33.33
2018-01-22T14:06:26.372Z,36.60
2018-01-22T14:08:53.832Z,27.43
2018-01-22T14:11:21.323Z,27.73
2018-01-22T14:13:49.106Z,27.50
2018-01-22T14:16:16.606Z,30.07
2018-01-22T14:18:44.068Z,27.37
2018-01-22T14:21:11.788Z,26.13
2018-01-22T14:23:39.257Z,34.23
2018-01-22T14:26:06.732Z,29.13
2018-01-22T14:28:34.445Z,33.00
2018-01-22T14:31:01.925Z,33.50
2018-01-22T14:33:29.723Z,45.33
2018-01-22T14:35:57.473Z,40.40
2018-01-22T14:38:24.939Z,36.60
2018-01-22T14:40:52.409Z,33.30
2018-01-22T14:43:23.222Z,36.03
2018-01-22T14:45:50.681Z,31.43
2018-01-22T14:48:18.140Z,42.63
2018-01-22T14:50:45.908Z,34.10
2018-01-22T14:53:13.365Z,34.83
2018-01-22T14:55:40.824Z,54.30
2018-01-22T14:58:08.547Z,41.53
2018-01-22T15:00:36.007Z,35.80
2018-01-22T15:03:03.474Z,49.17
2018-01-22T15:05:31.280Z,41.57
2018-01-22T15:07:58.735Z,37.93
2018-01-22T15:10:26.188Z,39.20
2018-01-22T15:12:54.285Z,46.93
2018-01-22T15:15:21.741Z,41.23
2018-01-22T15:17:49.195Z,35.97
2018-01-22T15:20:17.024Z,42.00
2018-01-22T15:22:45.316Z,32.83
2018-01-22T15:25:12.777Z,32.60
2018-01-22T15:27:40.579Z,36.13
2018-01-22T15:30:08.042Z,39.70
2018-01-22T15:32:35.493Z,38.53
2018-01-22T15:35:03.944Z,42.60
2018-01-22T15:37:31.392Z,37.77
2018-01-22T15:39:58.856Z,33.40
2018-01-22T15:42:26.860Z,38.33
2018-01-22T15:44:54.321Z,37.93
2018-01-22T15:47:21.769Z,31.90
2018-01-22T15:49:49.556Z,41.77
2018-01-22T15:52:17.008Z,35.67
2018-01-22T15:54:44.460Z,31.63
2018-01-22T15:57:12.258Z,33.33
2018-01-22T15:59:39.720Z,37.90
2018-01-22T16:02:07.170Z,45.17
2018-01-22T16:04:34.937Z,31.43
2018-01-22T16:07:02.392Z,33.60
2018-01-22T16:09:29.857Z,36.83
2018-01-22T16:11:57.570Z,38.00
2018-01-22T16:14:25.032Z,34.87
2018-01-22T16:16:52.482Z,41.90
2018-01-22T16:19:20.304Z,55.23
2018-01-22T16:21:47.764Z,49.60
2018-01-22T16:24:15.212Z,42.13
2018-01-22T16:26:42.993Z,48.03
2018-01-22T16:29:10.440Z,53.70
2018-01-22T16:31:37.908Z,50.70
2018-01-22T16:34:05.677Z,44.80
2018-01-22T16:36:33.837Z,45.53
2018-01-22T16:39:01.304Z,45.20
2018-01-22T16:41:29.174Z,49.77
2018-01-22T16:43:56.630Z,54.20
2018-01-22T16:46:24.084Z,44.60
2018-01-22T16:48:51.984Z,42.20
2018-01-22T16:51:19.478Z,53.77
2018-01-22T16:53:46.932Z,87.20
2018-01-22T16:56:14.659Z,43.63
2018-01-22T16:58:42.131Z,44.07
2018-01-22T17:01:09.682Z,42.17
2018-01-22T17:03:37.655Z,49.07
2018-01-22T17:06:05.644Z,42.50
2018-01-22T17:08:33.104Z,49.67
2018-01-22T17:11:00.955Z,42.80
2018-01-22T17:13:28.406Z,48.90
2018-01-22T17:15:55.862Z,52.70
2018-01-22T17:18:24.011Z,53.20
2018-01-22T17:20:51.672Z,50.33
2018-01-22T17:23:19.227Z,57.57
2018-01-22T17:25:47.128Z,46.93
2018-01-22T17:28:15.241Z,62.00
2018-01-22T17:30:42.705Z,47.80
2018-01-22T17:33:10.569Z,51.63
2018-01-22T17:35:38.492Z,49.17
2018-01-22T17:38:07.830Z,58.13
2018-01-22T17:40:37.074Z,52.93
2018-01-22T17:43:04.586Z,69.13
2018-01-22T17:45:32.054Z,59.43
2018-01-22T17:47:59.769Z,53.00
2018-01-22T17:50:27.214Z,51.67
2018-01-22T17:52:54.685Z,53.77
2018-01-22T17:55:22.604Z,58.27
2018-01-22T17:57:50.051Z,51.43
2018-01-22T18:00:17.517Z,53.77
2018-01-22T18:02:45.297Z,51.27
2018-01-22T18:05:12.754Z,54.73
2018-01-22T18:07:40.201Z,62.60
2018-01-22T18:10:08.308Z,49.17
2018-01-22T18:12:35.761Z,57.17
2018-01-22T18:15:03.225Z,59.93
2018-01-22T18:17:31.279Z,42.80
2018-01-22T18:19:58.728Z,58.90
2018-01-22T18:22:26.743Z,49.10
2018-01-22T18:24:54.761Z,44.20
2018-01-22T18:27:22.360Z,63.33
2018-01-22T18:29:49.817Z,56.03
2018-01-22T18:32:17.588Z,50.33
2018-01-22T18:34:45.368Z,52.40
2018-01-22T18:37:12.836Z,58.37
2018-01-22T18:39:41.492Z,52.00
2018-01-22T18:42:08.952Z,47.83
2018-01-22T18:44:36.397Z,49.90
2018-01-22T18:47:04.495Z,60.47
2018-01-22T18:49:31.995Z,53.90
2018-01-22T18:52:00.121Z,77.60
2018-01-22T18:54:28.848Z,78.03
2018-01-22T18:56:56.533Z,63.60
2018-01-22T18:59:24.244Z,58.97
2018-01-22T19:01:52.372Z,71.13
2018-01-22T19:04:19.829Z,68.00
2018-01-22T19:06:47.301Z,56.50
2018-01-22T19:09:14.993Z,58.70
2018-01-22T19:11:44.046Z,73.62
2018-01-22T19:14:11.694Z,59.07
2018-01-22T19:16:39.631Z,61.37
2018-01-22T19:19:07.241Z,64.27
2018-01-22T19:21:34.860Z,70.60
2018-01-22T19:24:03.453Z,58.63
2018-01-22T19:26:31.018Z,68.67
2018-01-22T19:28:58.753Z,66.07
2018-01-22T19:31:27.088Z,79.30
2018-01-22T19:33:54.805Z,73.97
2018-01-22T19:36:22.264Z,68.83
2018-01-22T19:38:50.091Z,73.47
2018-01-22T19:41:17.887Z,68.30
2018-01-22T19:43:47.091Z,106.03
2018-01-22T19:46:14.916Z,96.83
2018-01-22T19:48:42.384Z,74.70
2018-01-22T19:51:09.857Z,69.60
2018-01-22T19:53:37.889Z,68.30
2018-01-22T19:56:05.360Z,76.77
2018-01-22T19:58:32.828Z,71.57
2018-01-22T20:01:00.613Z,56.90
2018-01-22T20:03:28.117Z,60.40
2018-01-22T20:05:55.623Z,68.13
2018-01-22T20:08:23.577Z,58.37
2018-01-22T20:10:51.071Z,70.63
2018-01-22T20:13:18.528Z,70.87
2018-01-22T20:15:46.269Z,70.93
2018-01-22T20:18:14.348Z,66.87
2018-01-22T20:20:42.161Z,76.33
2018-01-22T20:23:10.165Z,90.47
2018-01-22T20:25:37.626Z,68.63
2018-01-22T20:28:05.086Z,61.53
2018-01-22T20:30:32.873Z,70.03
2018-01-22T20:33:00.345Z,88.77
2018-01-22T20:35:28.628Z,73.97
2018-01-22T20:37:57.405Z,72.10
2018-01-22T20:40:25.496Z,79.43
2018-01-22T20:42:53.568Z,79.97
2018-01-22T20:45:21.663Z,70.13
2018-01-22T20:47:49.725Z,66.67
2018-01-22T20:50:17.997Z,70.57
2018-01-22T20:52:46.448Z,75.97
2018-01-22T20:55:14.513Z,76.03
2018-01-22T20:57:42.333Z,79.23
2018-01-22T21:00:10.302Z,77.63
2018-01-22T21:02:37.754Z,90.47
2018-01-22T21:05:05.214Z,67.30
2018-01-22T21:07:33.124Z,87.13
2018-01-22T21:10:00.584Z,61.10
2018-01-22T21:12:28.056Z,71.20
2018-01-22T21:14:55.995Z,76.37
2018-01-22T21:17:23.464Z,76.80
2018-01-22T21:19:50.929Z,82.50
2018-01-22T21:22:18.748Z,76.20
2018-01-22T21:24:46.200Z,78.07
2018-01-22T21:27:13.664Z,84.53
2018-01-22T21:29:42.331Z,76.70
2018-01-22T21:32:10.330Z,67.50
2018-01-22T21:34:38.371Z,80.33
2018-01-22T21:37:06.272Z,85.60
2018-01-22T21:39:34.339Z,76.50
2018-01-22T21:42:02.407Z,78.00
2018-01-22T21:44:31.110Z,71.60
2018-01-22T21:46:58.567Z,78.63
2018-01-22T21:49:26.030Z,85.07
2018-01-22T21:51:54.057Z,79.57
2018-01-22T21:54:21.512Z,77.93
2018-01-22T21:56:48.967Z,78.67
2018-01-22T21:59:16.800Z,90.43
2018-01-22T22:01:44.290Z,88.77
2018-01-22T22:04:11.756Z,82.33
2018-01-22T22:06:39.472Z,69.53
2018-01-22T22:09:06.938Z,91.00
2018-01-22T22:11:34.466Z,95.90
2018-01-22T22:14:02.468Z,80.83
2018-01-22T22:16:29.929Z,84.13
2018-01-22T22:18:57.376Z,94.40
2018-01-22T22:21:25.152Z,104.50
2018-01-22T22:23:52.618Z,82.10
2018-01-22T22:26:20.085Z,102.00
2018-01-22T22:28:48.140Z,73.13
2018-01-22T22:31:15.593Z,84.00
2018-01-22T22:33:43.065Z,90.13
2018-01-22T22:36:10.836Z,96.53
2018-01-22T22:38:38.311Z,90.80
2018-01-22T22:41:05.780Z,89.70
2018-01-22T22:43:33.826Z,102.53
2018-01-22T22:46:01.808Z,99.00
2018-01-22T22:48:29.263Z,98.67
2018-01-22T22:50:57.139Z,95.70
2018-01-22T22:53:24.594Z,89.20
2018-01-22T22:55:52.053Z,85.60
2018-01-22T22:58:19.807Z,105.63
2018-01-22T23:00:47.260Z,100.37
2018-01-22T23:03:14.733Z,89.50
2018-01-22T23:05:42.505Z,100.80
2018-01-22T23:08:09.964Z,96.67
2018-01-22T23:10:37.425Z,89.43
2018-01-22T23:13:05.509Z,113.10
2018-01-22T23:15:32.969Z,115.97
2018-01-22T23:18:00.418Z,98.27
2018-01-22T23:20:28.189Z,104.40
2018-01-22T23:22:55.644Z,91.07
2018-01-22T23:25:23.107Z,90.97
2018-01-22T23:27:51.173Z,97.17
2018-01-22T23:30:18.621Z,90.40
2018-01-22T23:32:46.073Z,89.67
2018-01-22T23:35:13.963Z,110.27
2018-01-22T23:37:41.413Z,81.93
2018-01-22T23:40:08.868Z,99.03
2018-01-22T23:42:36.861Z,83.23
2018-01-22T23:45:04.317Z,85.47
2018-01-22T23:47:35.531Z,86.80
2018-01-22T23:50:03.228Z,86.67
2018-01-22T23:52:30.691Z,85.17
2018-01-22T23:54:58.145Z,91.83
2018-01-22T23:57:25.912Z,78.63
2018-01-22T23:59:53.356Z,91.50
